createdAt,value
2022-07-29T00:01:42.857Z,1.20
2022-07-29T00:04:10.505Z,1.50
2022-07-29T00:06:38.161Z,1.00
2022-07-29T00:09:05.805Z,1.20
2022-07-29T00:11:34.681Z,1.13
2022-07-29T00:14:02.361Z,1.30
2022-07-29T00:16:29.927Z,1.38
2022-07-29T00:19:00.624Z,1.38
2022-07-29T00:21:29.737Z,1.10
2022-07-29T00:23:57.385Z,1.38
2022-07-29T00:26:25.051Z,0.98
2022-07-29T00:29:06.338Z,1.40
2022-07-29T00:31:41.644Z,1.23
2022-07-29T00:34:29.435Z,1.33
2022-07-29T00:36:56.064Z,1.23
2022-07-29T00:39:23.671Z,1.27
2022-07-29T00:41:51.368Z,1.27
2022-07-29T00:44:20.294Z,1.10
2022-07-29T00:46:47.935Z,1.30
2022-07-29T00:49:15.619Z,1.40
2022-07-29T00:51:43.291Z,1.50
2022-07-29T00:54:11.554Z,1.30
2022-07-29T00:56:39.214Z,1.40
2022-07-29T00:59:06.765Z,1.60
2022-07-29T01:01:35.778Z,1.60
2022-07-29T01:04:03.485Z,1.80
2022-07-29T01:06:31.131Z,2.03
2022-07-29T01:08:58.917Z,1.42
2022-07-29T01:11:26.498Z,1.50
2022-07-29T01:14:01.517Z,1.80
2022-07-29T01:16:30.673Z,1.60
2022-07-29T01:19:02.546Z,1.80
2022-07-29T01:21:35.640Z,1.70
2022-07-29T01:24:20.946Z,1.50
2022-07-29T01:26:49.275Z,1.58
2022-07-29T01:29:23.398Z,1.20
2022-07-29T01:31:59.143Z,1.40
2022-07-29T01:34:54.107Z,1.52
2022-07-29T01:37:21.929Z,1.48
2022-07-29T01:39:50.057Z,1.52
2022-07-29T01:42:20.117Z,1.27
2022-07-29T01:44:50.464Z,1.42
2022-07-29T01:47:19.621Z,1.38
2022-07-29T01:49:48.246Z,1.15
2022-07-29T01:52:19.335Z,1.60
2022-07-29T01:54:54.073Z,1.55
2022-07-29T01:57:21.908Z,1.15
2022-07-29T01:59:50.931Z,1.13
2022-07-29T02:02:18.597Z,1.70
2022-07-29T02:04:49.248Z,1.50
2022-07-29T02:07:17.939Z,1.50
2022-07-29T02:09:45.572Z,1.37
2022-07-29T02:12:13.282Z,1.30
2022-07-29T02:14:41.774Z,1.40
2022-07-29T02:17:10.666Z,1.58
2022-07-29T02:19:38.267Z,1.45
2022-07-29T02:22:05.869Z,1.50
2022-07-29T02:24:34.808Z,1.58
2022-07-29T02:27:02.553Z,1.40
2022-07-29T02:29:30.494Z,1.40
2022-07-29T02:31:58.162Z,1.10
2022-07-29T02:34:27.114Z,1.55
2022-07-29T02:36:54.851Z,1.20
2022-07-29T02:39:22.464Z,1.40
2022-07-29T02:41:50.513Z,1.30
2022-07-29T02:44:18.986Z,1.63
2022-07-29T02:46:48.392Z,1.30
2022-07-29T02:49:17.597Z,1.80
2022-07-29T02:51:47.224Z,1.65
2022-07-29T02:57:07.752Z,1.45
2022-07-29T02:59:36.615Z,1.48
2022-07-29T03:02:04.245Z,1.60
2022-07-29T03:04:31.854Z,1.23
2022-07-29T03:07:01.556Z,1.80
2022-07-29T03:09:29.516Z,1.35
2022-07-29T03:11:57.119Z,1.67
2022-07-29T03:14:25.142Z,1.40
2022-07-29T03:16:52.995Z,1.42
2022-07-29T03:19:21.110Z,2.00
2022-07-29T03:21:48.749Z,1.65
2022-07-29T03:24:30.643Z,1.73
2022-07-29T03:26:58.765Z,1.50
2022-07-29T03:29:33.031Z,1.77
2022-07-29T03:32:01.005Z,1.45
2022-07-29T03:34:30.338Z,1.65
2022-07-29T03:36:58.037Z,2.00
2022-07-29T03:39:26.586Z,1.70
2022-07-29T03:41:57.163Z,1.70
2022-07-29T03:44:24.817Z,1.83
2022-07-29T03:46:52.518Z,1.65
2022-07-29T03:49:20.681Z,1.50
2022-07-29T03:51:48.253Z,1.80
2022-07-29T03:54:16.270Z,1.55
2022-07-29T03:56:47.092Z,1.08
2022-07-29T03:59:16.096Z,1.10
2022-07-29T04:01:43.874Z,1.65
2022-07-29T04:04:11.516Z,1.60
2022-07-29T04:06:39.811Z,1.50
2022-07-29T04:09:07.545Z,1.00
2022-07-29T04:11:56.974Z,1.42
2022-07-29T04:14:26.693Z,1.17
2022-07-29T04:16:54.591Z,1.50
2022-07-29T04:19:47.669Z,1.58
2022-07-29T04:22:15.296Z,1.00
2022-07-29T04:24:44.431Z,1.40
2022-07-29T04:29:56.287Z,1.30
2022-07-29T04:32:25.144Z,1.67
2022-07-29T04:34:52.663Z,1.30
2022-07-29T04:37:20.399Z,1.35
2022-07-29T04:40:13.353Z,1.35
2022-07-29T04:42:46.477Z,1.70
2022-07-29T04:45:16.387Z,1.65
2022-07-29T04:47:43.974Z,1.60
2022-07-29T04:50:11.653Z,1.27
2022-07-29T04:52:39.299Z,1.25
2022-07-29T04:55:07.461Z,1.27
2022-07-29T04:57:35.164Z,1.60
2022-07-29T05:00:02.919Z,1.40
2022-07-29T05:02:32.009Z,1.58
2022-07-29T05:04:59.612Z,1.33
2022-07-29T05:07:27.189Z,1.35
2022-07-29T05:09:55.025Z,1.75
2022-07-29T05:12:22.658Z,1.77
2022-07-29T05:14:50.416Z,1.50
2022-07-29T05:17:18.036Z,1.30
2022-07-29T05:19:47.402Z,1.80
2022-07-29T05:22:15.232Z,1.40
2022-07-29T05:24:42.973Z,1.50
2022-07-29T05:27:10.728Z,1.50
2022-07-29T05:29:43.717Z,1.90
2022-07-29T05:32:13.342Z,1.70
2022-07-29T05:34:51.124Z,1.95
2022-07-29T05:37:21.085Z,1.80
2022-07-29T05:39:56.153Z,1.50
2022-07-29T05:42:50.653Z,1.10
2022-07-29T05:45:18.580Z,1.10
2022-07-29T05:47:46.518Z,1.45
2022-07-29T05:50:14.256Z,1.40
2022-07-29T05:52:43.200Z,1.30
2022-07-29T05:55:11.222Z,1.65
2022-07-29T05:57:38.857Z,1.50
2022-07-29T06:00:07.049Z,1.80
2022-07-29T06:02:52.360Z,2.13
2022-07-29T06:05:20.069Z,2.03
2022-07-29T06:07:50.749Z,2.00
2022-07-29T06:10:26.100Z,1.85
2022-07-29T06:12:54.781Z,1.80
2022-07-29T06:15:22.402Z,1.90
2022-07-29T06:18:00.307Z,2.13
2022-07-29T06:20:30.706Z,1.90
2022-07-29T06:23:23.841Z,1.83
2022-07-29T06:25:53.136Z,1.88
2022-07-29T06:28:20.760Z,1.95
2022-07-29T06:30:48.810Z,2.10
2022-07-29T06:33:20.486Z,2.13
2022-07-29T06:35:55.007Z,2.10
2022-07-29T06:38:30.929Z,2.08
2022-07-29T06:41:03.300Z,2.30
2022-07-29T06:43:52.166Z,1.90
2022-07-29T06:46:23.028Z,2.70
2022-07-29T06:48:51.058Z,2.30
2022-07-29T06:51:22.194Z,2.38
2022-07-29T06:53:58.140Z,2.40
2022-07-29T06:56:29.393Z,1.90
2022-07-29T06:58:57.052Z,1.85
2022-07-29T07:01:25.095Z,2.40
2022-07-29T07:04:01.872Z,1.90
2022-07-29T07:06:29.732Z,2.00
2022-07-29T07:08:57.360Z,2.10
2022-07-29T07:11:25.069Z,1.95
2022-07-29T07:13:54.837Z,1.92
2022-07-29T07:16:24.767Z,1.90
2022-07-29T07:18:52.506Z,1.95
2022-07-29T07:21:20.202Z,2.28
2022-07-29T07:23:48.009Z,2.30
2022-07-29T07:26:16.504Z,2.15
2022-07-29T07:28:44.079Z,1.80
2022-07-29T07:31:13.469Z,1.98
2022-07-29T07:33:41.274Z,2.25
2022-07-29T07:36:09.095Z,1.90
2022-07-29T07:38:36.804Z,2.58
2022-07-29T07:41:04.715Z,2.63
2022-07-29T07:43:32.325Z,2.45
2022-07-29T07:45:59.941Z,2.65
2022-07-29T07:48:29.464Z,2.30
2022-07-29T07:50:57.260Z,2.85
2022-07-29T07:53:26.056Z,2.63
2022-07-29T07:56:09.789Z,2.72
2022-07-29T07:58:39.522Z,2.70
2022-07-29T08:01:07.335Z,2.60
2022-07-29T08:03:36.521Z,2.95
2022-07-29T08:06:29.665Z,3.47
2022-07-29T08:09:19.523Z,3.08
2022-07-29T08:11:52.205Z,2.60
2022-07-29T08:14:20.250Z,2.72
2022-07-29T08:16:47.977Z,2.63
2022-07-29T08:19:17.229Z,3.30
2022-07-29T08:21:44.845Z,2.60
2022-07-29T08:24:29.988Z,2.70
2022-07-29T08:26:57.674Z,3.03
2022-07-29T08:29:25.317Z,3.30
2022-07-29T08:31:53.209Z,3.33
2022-07-29T08:34:28.085Z,3.05
2022-07-29T08:36:56.137Z,2.72
2022-07-29T08:39:24.310Z,2.67
2022-07-29T08:42:01.859Z,2.75
2022-07-29T08:44:30.968Z,2.80
2022-07-29T08:47:19.803Z,2.90
2022-07-29T08:49:49.441Z,2.90
2022-07-29T08:52:18.077Z,2.67
2022-07-29T08:54:46.018Z,2.70
2022-07-29T08:57:14.562Z,2.65
2022-07-29T08:59:42.321Z,3.00
2022-07-29T09:02:10.464Z,3.10
2022-07-29T09:04:38.151Z,3.10
2022-07-29T09:07:07.610Z,3.03
2022-07-29T09:09:35.305Z,2.92
2022-07-29T09:12:04.940Z,2.88
2022-07-29T09:14:32.617Z,3.10
2022-07-29T09:17:01.169Z,3.05
2022-07-29T09:19:30.106Z,3.30
2022-07-29T09:22:03.580Z,3.33
2022-07-29T09:24:40.613Z,3.42
2022-07-29T09:27:10.025Z,2.75
2022-07-29T09:29:37.938Z,2.78
2022-07-29T09:32:07.692Z,2.80
2022-07-29T09:34:35.525Z,2.97
2022-07-29T09:37:03.239Z,2.75
2022-07-29T09:39:31.708Z,2.65
2022-07-29T09:42:01.011Z,2.80
2022-07-29T09:44:29.054Z,2.10
2022-07-29T09:46:57.942Z,2.83
2022-07-29T09:49:25.882Z,3.10
2022-07-29T09:52:06.641Z,3.10
2022-07-29T09:54:37.680Z,2.85
2022-07-29T09:57:07.529Z,3.15
2022-07-29T09:59:35.213Z,2.63
2022-07-29T10:02:03.057Z,2.90
2022-07-29T10:04:40.920Z,3.45
2022-07-29T10:07:08.829Z,3.20
2022-07-29T10:09:36.589Z,3.58
2022-07-29T10:12:05.097Z,3.78
2022-07-29T10:14:34.517Z,3.65
2022-07-29T10:19:30.670Z,3.30
2022-07-29T10:21:58.965Z,3.25
2022-07-29T10:24:27.204Z,2.90
2022-07-29T10:26:55.137Z,2.67
2022-07-29T10:29:22.950Z,3.05
2022-07-29T10:31:55.107Z,2.03
2022-07-29T10:34:24.674Z,1.75
2022-07-29T10:36:54.722Z,1.65
2022-07-29T10:39:26.681Z,1.45
2022-07-29T10:42:13.128Z,1.98
2022-07-29T10:44:44.974Z,1.48
2022-07-29T10:47:22.876Z,1.70
2022-07-29T10:52:54.686Z,1.23
2022-07-29T10:55:37.449Z,1.25
2022-07-29T10:58:15.275Z,1.27
2022-07-29T11:00:43.089Z,1.40
2022-07-29T11:03:28.463Z,1.13
2022-07-29T11:05:59.888Z,1.50
2022-07-29T11:08:28.330Z,1.60
2022-07-29T11:11:11.989Z,1.50
2022-07-29T11:13:48.890Z,1.45
2022-07-29T11:16:17.121Z,1.50
2022-07-29T11:19:06.665Z,1.05
2022-07-29T11:21:54.132Z,1.40
2022-07-29T11:24:30.104Z,1.13
2022-07-29T11:27:18.294Z,1.23
2022-07-29T11:29:54.530Z,1.52
2022-07-29T11:32:24.072Z,1.40
2022-07-29T11:34:52.065Z,1.02
2022-07-29T11:40:15.319Z,1.40
2022-07-29T11:42:44.975Z,1.50
2022-07-29T11:45:41.660Z,1.73
2022-07-29T11:48:29.521Z,1.25
2022-07-29T11:50:50.667Z,1.35
2022-07-29T11:53:20.893Z,1.45
2022-07-29T11:55:51.033Z,1.17
2022-07-29T11:58:25.265Z,1.40
2022-07-29T12:00:55.244Z,1.70
2022-07-29T12:03:35.420Z,1.30
2022-07-29T12:06:07.394Z,1.35
2022-07-29T12:07:01.663Z,1.40
2022-07-29T12:08:54.242Z,1.30
2022-07-29T12:11:23.508Z,1.10
2022-07-29T12:13:52.261Z,1.20
2022-07-29T12:16:29.216Z,1.63
2022-07-29T12:18:58.709Z,1.67
2022-07-29T12:23:57.056Z,1.10
2022-07-29T12:26:29.979Z,1.38
2022-07-29T12:28:58.294Z,1.20
2022-07-29T12:31:43.707Z,1.20
2022-07-29T12:34:13.185Z,1.38
2022-07-29T12:36:40.866Z,1.48
2022-07-29T12:39:10.097Z,1.38
2022-07-29T12:41:37.802Z,1.70
2022-07-29T12:44:05.768Z,1.30
2022-07-29T12:46:33.498Z,1.27
2022-07-29T12:49:01.292Z,1.40
2022-07-29T12:51:32.927Z,1.42
2022-07-29T12:54:04.041Z,1.20
2022-07-29T12:56:42.673Z,1.00
2022-07-29T12:59:15.018Z,1.30
2022-07-29T13:01:42.984Z,1.30
2022-07-29T13:04:10.688Z,1.50
2022-07-29T13:06:39.365Z,1.50
2022-07-29T13:09:10.345Z,1.38
2022-07-29T13:11:39.544Z,1.35
2022-07-29T13:14:16.501Z,1.40
2022-07-29T13:17:01.937Z,1.20
2022-07-29T13:19:34.693Z,1.50
2022-07-29T13:22:02.528Z,1.40
2022-07-29T13:24:30.371Z,1.73
2022-07-29T13:26:59.604Z,1.50
2022-07-29T13:29:31.460Z,1.13
2022-07-29T13:32:00.162Z,1.40
2022-07-29T13:34:31.093Z,1.10
2022-07-29T13:36:58.870Z,1.52
2022-07-29T13:39:26.451Z,1.23
2022-07-29T13:41:54.471Z,1.27
2022-07-29T13:44:25.249Z,1.20
2022-07-29T13:46:53.088Z,1.35
2022-07-29T13:49:20.685Z,1.52
2022-07-29T13:51:48.589Z,1.73
2022-07-29T13:54:16.367Z,1.97
2022-07-29T13:56:44.080Z,1.55
2022-07-29T13:59:14.181Z,1.90
2022-07-29T14:01:43.565Z,2.25
2022-07-29T14:04:13.290Z,1.70
2022-07-29T14:06:41.005Z,2.10
2022-07-29T14:09:09.658Z,1.63
2022-07-29T14:11:39.280Z,1.80
2022-07-29T14:14:06.954Z,1.70
2022-07-29T14:16:38.034Z,1.77
2022-07-29T14:19:09.593Z,2.17
2022-07-29T14:21:37.162Z,1.90
2022-07-29T14:24:17.069Z,1.60
2022-07-29T14:26:48.931Z,1.80
2022-07-29T14:29:16.603Z,1.80
2022-07-29T14:31:44.818Z,1.80
2022-07-29T14:34:14.149Z,2.13
2022-07-29T14:36:41.773Z,2.25
2022-07-29T14:39:09.751Z,2.28
2022-07-29T14:41:37.297Z,2.28
2022-07-29T14:44:05.264Z,2.35
2022-07-29T14:46:32.935Z,1.92
2022-07-29T14:49:00.696Z,2.35
2022-07-29T14:51:32.251Z,1.85
2022-07-29T14:54:00.408Z,1.92
2022-07-29T14:56:37.255Z,1.58
2022-07-29T14:59:09.749Z,1.88
2022-07-29T15:01:37.633Z,2.10
2022-07-29T15:04:05.560Z,2.40
2022-07-29T15:06:34.955Z,2.53
2022-07-29T15:09:02.649Z,1.98
2022-07-29T15:11:30.290Z,2.38
2022-07-29T15:14:04.678Z,2.38
2022-07-29T15:16:32.324Z,2.03
2022-07-29T15:19:01.238Z,3.20
2022-07-29T15:21:29.167Z,1.98
2022-07-29T15:23:58.075Z,1.98
2022-07-29T15:26:25.915Z,2.38
2022-07-29T15:28:53.586Z,2.22
2022-07-29T15:31:21.289Z,2.30
2022-07-29T15:33:48.936Z,1.70
2022-07-29T15:36:35.973Z,1.80
2022-07-29T15:39:05.667Z,1.70
2022-07-29T15:41:33.244Z,1.98
2022-07-29T15:44:00.999Z,1.75
2022-07-29T15:46:45.953Z,1.45
2022-07-29T15:49:13.703Z,1.42
2022-07-29T15:51:41.391Z,1.90
2022-07-29T15:54:10.489Z,1.60
2022-07-29T15:59:06.629Z,1.50
2022-07-29T16:01:34.380Z,1.50
2022-07-29T16:04:02.808Z,1.73
2022-07-29T16:06:30.698Z,1.27
2022-07-29T16:08:58.849Z,1.42
2022-07-29T16:11:28.017Z,1.40
2022-07-29T16:16:23.121Z,1.10
2022-07-29T16:19:00.374Z,1.40
2022-07-29T16:21:28.129Z,1.50
2022-07-29T16:23:55.769Z,1.30
2022-07-29T16:26:23.353Z,1.30
2022-07-29T16:28:52.448Z,1.40
2022-07-29T16:33:54.659Z,1.30
2022-07-29T16:36:23.547Z,1.35
2022-07-29T16:38:51.189Z,1.40
2022-07-29T16:41:18.921Z,1.50
2022-07-29T16:43:46.596Z,1.40
2022-07-29T16:46:18.858Z,2.78
2022-07-29T16:48:47.195Z,2.60
2022-07-29T16:53:44.879Z,3.70
2022-07-29T16:56:13.052Z,4.03
2022-07-29T16:58:43.792Z,2.83
2022-07-29T17:01:11.983Z,1.75
2022-07-29T17:04:01.741Z,2.42
2022-07-29T17:06:29.838Z,1.08
2022-07-29T17:08:57.566Z,1.60
2022-07-29T17:11:52.477Z,2.35
2022-07-29T17:14:13.087Z,1.65
2022-07-29T17:16:40.906Z,1.52
2022-07-29T17:19:10.149Z,3.90
2022-07-29T17:22:11.314Z,1.35
2022-07-29T17:24:42.341Z,2.60
2022-07-29T17:27:10.505Z,2.50
2022-07-29T17:29:38.847Z,1.55
2022-07-29T17:32:07.556Z,3.50
2022-07-29T17:37:04.583Z,1.40
2022-07-29T17:42:05.882Z,3.80
2022-07-29T17:44:36.263Z,1.48
2022-07-29T17:47:04.365Z,1.33
2022-07-29T17:49:32.103Z,1.27
2022-07-29T17:52:01.071Z,1.70
2022-07-29T17:56:58.014Z,1.70
2022-07-29T17:59:25.922Z,1.65
2022-07-29T18:01:54.122Z,1.52
2022-07-29T18:04:23.371Z,1.67
2022-07-29T18:06:51.276Z,1.42
2022-07-29T18:09:18.941Z,1.48
2022-07-29T18:11:47.504Z,1.33
2022-07-29T18:14:16.966Z,1.50
2022-07-29T18:16:44.881Z,1.58
2022-07-29T18:19:12.577Z,1.60
2022-07-29T18:21:51.302Z,1.38
2022-07-29T18:24:22.520Z,1.30
2022-07-29T18:26:50.293Z,1.50
2022-07-29T18:29:19.493Z,2.08
2022-07-29T18:31:47.204Z,2.55
2022-07-29T18:34:14.992Z,1.38
2022-07-29T18:36:42.596Z,1.60
2022-07-29T18:39:10.250Z,1.92
2022-07-29T18:41:49.894Z,1.50
2022-07-29T18:44:21.914Z,1.70
2022-07-29T18:46:50.758Z,1.92
2022-07-29T18:49:18.551Z,1.40
2022-07-29T18:51:46.356Z,1.35
2022-07-29T18:54:14.141Z,1.60
2022-07-29T18:56:41.759Z,1.70
2022-07-29T18:59:09.435Z,1.60
2022-07-29T19:01:38.928Z,1.65
2022-07-29T19:04:31.831Z,1.63
2022-07-29T19:07:02.773Z,1.65
2022-07-29T19:09:30.577Z,1.60
2022-07-29T19:12:01.928Z,1.67
2022-07-29T19:14:31.355Z,1.58
2022-07-29T19:17:00.761Z,1.83
2022-07-29T19:19:28.580Z,1.63
2022-07-29T19:21:56.284Z,1.60
2022-07-29T19:24:48.634Z,2.05
2022-07-29T19:27:17.210Z,1.77
2022-07-29T19:29:44.840Z,1.70
2022-07-29T19:32:24.912Z,1.60
2022-07-29T19:35:08.046Z,2.00
2022-07-29T19:37:35.800Z,1.80
2022-07-29T19:40:03.500Z,2.13
2022-07-29T19:42:31.241Z,1.75
2022-07-29T19:44:58.899Z,1.50
2022-07-29T19:47:28.104Z,1.70
2022-07-29T19:49:55.671Z,1.80
2022-07-29T19:52:23.386Z,1.63
2022-07-29T19:54:50.988Z,1.80
2022-07-29T19:57:18.638Z,1.90
2022-07-29T19:59:46.475Z,1.42
2022-07-29T20:02:14.222Z,1.80
2022-07-29T20:04:45.264Z,1.83
2022-07-29T20:07:13.571Z,1.70
2022-07-29T20:09:41.224Z,1.80
2022-07-29T20:12:09.233Z,1.77
2022-07-29T20:14:36.916Z,2.15
2022-07-29T20:17:04.735Z,1.65
2022-07-29T20:19:33.405Z,1.88
2022-07-29T20:22:02.432Z,2.13
2022-07-29T20:24:30.135Z,3.78
2022-07-29T20:26:58.020Z,5.18
2022-07-29T20:29:25.979Z,2.85
2022-07-29T20:31:56.381Z,2.20
2022-07-29T20:34:24.396Z,1.90
2022-07-29T20:36:52.012Z,2.47
2022-07-29T20:39:21.922Z,2.08
2022-07-29T20:41:49.515Z,2.15
2022-07-29T20:44:18.767Z,2.47
2022-07-29T20:46:48.828Z,2.42
2022-07-29T20:49:16.556Z,2.20
2022-07-29T20:51:44.333Z,2.40
2022-07-29T20:54:12.018Z,2.50
2022-07-29T20:56:41.400Z,2.30
2022-07-29T21:01:36.574Z,1.70
2022-07-29T21:04:04.313Z,2.35
2022-07-29T21:06:32.317Z,2.22
2022-07-29T21:09:01.072Z,2.67
2022-07-29T21:11:44.692Z,2.00
2022-07-29T21:14:21.598Z,2.05
2022-07-29T21:16:50.218Z,2.20
2022-07-29T21:19:17.919Z,1.97
2022-07-29T21:21:45.667Z,2.55
2022-07-29T21:24:13.323Z,1.90
2022-07-29T21:26:40.924Z,2.22
2022-07-29T21:29:51.479Z,2.28
2022-07-29T21:32:29.868Z,2.38
2022-07-29T21:34:58.076Z,2.00
2022-07-29T21:37:25.801Z,1.95
2022-07-29T21:39:53.409Z,1.52
2022-07-29T21:42:21.037Z,2.15
2022-07-29T21:44:48.657Z,2.05
2022-07-29T21:47:16.307Z,2.10
2022-07-29T21:49:46.431Z,2.42
2022-07-29T21:52:14.302Z,2.30
2022-07-29T21:54:42.667Z,2.05
2022-07-29T21:57:10.270Z,2.60
2022-07-29T21:59:37.893Z,3.13
2022-07-29T22:02:05.518Z,2.50
2022-07-29T22:04:34.065Z,2.60
2022-07-29T22:07:03.773Z,2.75
2022-07-29T22:09:31.704Z,2.67
2022-07-29T22:11:59.467Z,2.60
2022-07-29T22:14:27.143Z,2.90
2022-07-29T22:16:58.066Z,2.33
2022-07-29T22:19:27.549Z,2.38
2022-07-29T22:21:55.354Z,2.53
2022-07-29T22:24:24.295Z,2.55
2022-07-29T22:26:51.920Z,2.40
2022-07-29T22:29:19.883Z,2.78
2022-07-29T22:31:51.915Z,2.60
2022-07-29T22:34:19.591Z,2.70
2022-07-29T22:36:47.612Z,2.40
2022-07-29T22:39:16.152Z,2.58
2022-07-29T22:41:45.263Z,2.17
2022-07-29T22:44:12.944Z,2.67
2022-07-29T22:46:40.542Z,2.75
2022-07-29T22:49:08.262Z,3.10
2022-07-29T22:51:36.155Z,2.60
2022-07-29T22:54:03.924Z,3.13
2022-07-29T22:56:31.574Z,3.28
2022-07-29T22:59:00.520Z,3.00
2022-07-29T23:01:37.490Z,2.80
2022-07-29T23:04:06.180Z,3.10
2022-07-29T23:06:33.979Z,2.75
2022-07-29T23:09:01.685Z,2.88
2022-07-29T23:11:29.241Z,3.28
2022-07-29T23:13:56.860Z,3.03
2022-07-29T23:16:26.350Z,3.47
2022-07-29T23:18:54.701Z,3.15
2022-07-29T23:21:22.303Z,2.60
2022-07-29T23:23:50.094Z,2.92
2022-07-29T23:26:17.690Z,2.97
2022-07-29T23:28:45.443Z,3.30
2022-07-29T23:31:13.498Z,3.05
2022-07-29T23:33:52.318Z,3.17
2022-07-29T23:36:21.691Z,2.63
2022-07-29T23:41:16.770Z,2.92
2022-07-29T23:43:44.399Z,3.50
2022-07-29T23:46:12.033Z,3.28
2022-07-29T23:48:39.762Z,3.22
2022-07-29T23:51:07.603Z,3.50
2022-07-29T23:53:38.612Z,3.20
2022-07-29T23:56:30.034Z,3.25
2022-07-29T23:58:57.761Z,3.55
